• Join FlightAware (Why Join?)
  • Login
  • US Flag 
05:53PM EDT


 

Airport Tracker/Info


-or-


 

Live Flight TrackerFlight Track Log ✈ UAL3773 ✈ 18-Apr-2013 ✈ KIAD - KMCI

Flight Track Log - Related Links

Times and Time Zones

All times are in EDT time to prevent confusion due to time zone crossing. See the UAL3773 flight status page for this flight to view local times or setup timezone preferences in your user account.

Time Position Orientation Groundspeed Altitude Reporting Facility
EDT Latitude Longitude Course Direction KTS MPH feet Rate Location/Type
04:04PM 38.9500 -77.5500 288° West 207 238 1,900  Level Potomac TRACON
04:05PM 38.9167 -77.6333 243° Southwest 259 298 4,300 1,860 Climbing Potomac TRACON
04:06PM 38.9000 -77.7167 256° West 262 302 5,700 1,740 Climbing Potomac TRACON
04:07PM 38.8753 -77.7514 228° Southwest 267 307 7,100 2,580 Climbing Washington Center
04:08PM 38.8278 -77.8328 233° Southwest 272 313 9,800 2,400 Climbing Washington Center
04:09PM 38.7892 -77.9008 234° Southwest 272 313 12,000 2,220 Climbing Washington Center
04:10PM 38.8431 -78.1724 288° West  Level FlightAware Approximate
04:10PM 38.8039 -78.0025 281° West 256 295 14,300  Level Washington Center
04:11PM 38.8308 -78.1100 288° West 284 327 15,600 1,380 Climbing Washington Center
04:12PM 38.8531 -78.2333 283° West 322 371 17,100 1,440 Climbing Washington Center
04:13PM 38.8525 -78.3586 270° West 347 399 18,500 1,500 Climbing Washington Center
04:14PM 38.8514 -78.4944 269° West 369 425 20,100 1,560 Climbing Washington Center
04:15PM 38.8500 -78.6331 269° West 379 436 21,700 1,500 Climbing Washington Center
04:16PM 38.8483 -78.7742 269° West 389 448 23,200 1,380 Climbing Washington Center
04:17PM 38.8467 -78.9181 269° West 400 460 24,500 1,320 Climbing Washington Center
04:18PM 38.8447 -79.0619 269° West 405 466 25,900 1,200 Climbing Washington Center
04:19PM 38.8422 -79.2139 269° West 415 478 27,000 960 Climbing Washington Center
04:20PM 38.8375 -79.3628 268° West 422 486 27,900 1,080 Climbing Washington Center
04:21PM 38.8347 -79.5147 269° West 422 486 29,200 1,200 Climbing Washington Center
04:22PM 38.8339 -79.6719 270° West 427 491 30,400 1,260 Climbing Washington Center
04:23PM 38.8306 -79.8208 268° West 427 491 31,800 1,080 Climbing Washington Center
04:24PM 38.8253 -79.9697 267° West 422 486 32,600 840 Climbing Washington Center
04:25PM 38.8175 -80.1872 267° West 413 475 34,000 960 Climbing Indianapolis Center
04:26PM 38.8125 -80.3353 268° West 415 478 35,200 840 Climbing Indianapolis Center
04:28PM 38.8083 -80.4822 268° West 413 475 35,800 360 Climbing Indianapolis Center
04:29PM 38.8042 -80.6611 268° West 419 482 36,000 60 Climbing Indianapolis Center
04:30PM 38.7997 -80.8158 268° West 433 498 36,000  Level Indianapolis Center
04:31PM 38.7950 -80.9717 268° West 438 504 36,000  Level Indianapolis Center
04:32PM 38.7897 -81.1272 268° West 437 503 36,000  Level Indianapolis Center
04:33PM 38.7850 -81.2819 268° West 436 502 36,000  Level Indianapolis Center
04:34PM 38.7789 -81.4542 267° West 438 504 36,000  Level Indianapolis Center
04:35PM 38.7728 -81.6094 267° West 437 503 36,000  Level Indianapolis Center
04:36PM 38.7667 -81.7661 267° West 432 497 36,000  Level Indianapolis Center
04:37PM 38.7608 -81.9161 267° West 426 490 36,000  Level Indianapolis Center
04:38PM 38.7539 -82.0664 267° West 423 487 36,000  Level Indianapolis Center
04:39PM 38.7486 -82.2161 267° West 422 486 36,000  Level Indianapolis Center
04:40PM 38.7411 -82.3936 267° West 416 479 36,000  Level Indianapolis Center
04:41PM 38.7356 -82.5411 267° West 415 478 36,000  Level Indianapolis Center
04:42PM 38.7294 -82.6886 267° West 416 479 36,000  Level Indianapolis Center
04:43PM 38.7233 -82.8358 267° West 414 476 36,000  Level Indianapolis Center
04:44PM 38.7156 -82.9853 266° West 421 484 36,000  Level Indianapolis Center
04:45PM 38.7092 -83.1344 267° West 421 484 36,000  Level Indianapolis Center
04:46PM 38.7011 -83.3086 267° West 423 487 36,000  Level Indianapolis Center
04:47PM 38.6936 -83.4611 266° West 424 488 36,000  Level Indianapolis Center
04:48PM 38.6861 -83.6131 266° West 423 487 36,000  Level Indianapolis Center
04:49PM 38.6786 -83.7653 266° West 424 488 36,000  Level Indianapolis Center
04:50PM 38.6700 -83.9161 266° West 422 486 36,000  Level Indianapolis Center
04:51PM 38.6631 -84.0672 267° West 420 483 36,000  Level Indianapolis Center
04:52PM 38.6544 -84.2172 266° West 418 481 36,000  Level Indianapolis Center
04:53PM 38.6514 -84.3664 269° West 417 480 36,000  Level Indianapolis Center
04:54PM 38.6617 -84.5164 275° West 418 481 36,000 480 Level Indianapolis Center
04:55PM 38.6703 -84.6672 274° West 413 475 37,000 960 Climbing Indianapolis Center
04:56PM 38.6800 -84.8297 274° West 397 457 38,000 480 Climbing Indianapolis Center
04:57PM 38.6864 -84.9575 274° West 394 453 38,000  Level Indianapolis Center
04:58PM 38.6936 -85.1003 274° West 400 460 38,000  Level Indianapolis Center
04:59PM 38.7025 -85.2467 274° West 408 470 38,000  Level Indianapolis Center
05:00PM 38.7092 -85.3939 273° West 413 475 38,000  Level Indianapolis Center
05:02PM 38.7186 -85.5708 274° West 414 476 38,000  Level Indianapolis Center
05:03PM 38.7247 -85.7206 273° West 418 481 38,000  Level Indianapolis Center
05:04PM 38.7336 -85.8700 274° West 419 482 38,000  Level Indianapolis Center
05:05PM 38.7422 -86.0214 274° West 424 488 38,000  Level Indianapolis Center
05:06PM 38.7483 -86.1689 273° West 416 479 38,000  Level Indianapolis Center
05:07PM 38.7542 -86.3136 273° West 409 471 38,000  Level Indianapolis Center
05:08PM 38.7600 -86.4572 273° West 404 465 38,000  Level Indianapolis Center
05:09PM 38.7667 -86.6003 273° West 403 464 38,000  Level Indianapolis Center
05:10PM 38.7722 -86.7403 273° West 395 455 38,000  Level Indianapolis Center
05:11PM 38.7786 -86.9094 273° West 396 456 38,000  Level Indianapolis Center
05:12PM 38.7847 -87.0494 273° West 394 453 38,000  Level Indianapolis Center
05:13PM 38.7897 -87.1881 273° West 391 450 38,000  Level Indianapolis Center
05:14PM 38.7942 -87.3261 272° West 388 447 38,000  Level Indianapolis Center
05:15PM 38.7997 -87.4639 273° West 388 447 38,000  Level Indianapolis Center
05:16PM 38.8036 -87.6019 272° West 388 447 38,000  Level Indianapolis Center
05:17PM 38.8081 -87.7394 272° West 387 445 38,000  Level Indianapolis Center
05:18PM 38.8125 -87.9069 272° West 390 449 38,000  Level Indianapolis Center
05:19PM 38.8150 -87.9908 272° West 387 445 38,000  Level Kansas City Center
05:20PM 38.8189 -88.1286 272° West 386 444 38,000  Level Kansas City Center
05:21PM 38.8225 -88.2681 272° West 389 448 38,000  Level Kansas City Center
05:22PM 38.8261 -88.4061 272° West 388 447 38,000  Level Kansas City Center
05:23PM 38.8283 -88.5456 271° West 389 448 38,000  Level Kansas City Center
05:24PM 38.8333 -88.6958 272° West 388 447 38,000  Level Kansas City Center
05:25PM 38.8372 -88.8333 272° West 387 445 38,000  Level Kansas City Center
05:26PM 38.8392 -88.9906 271° West 386 444 38,000  Level Kansas City Center
05:27PM 38.8436 -89.1386 272° West 387 445 38,000  Level Kansas City Center
05:28PM 38.8450 -89.2750 271° West 383 441 38,000  Level Kansas City Center
05:29PM 38.8472 -89.4231 271° West 387 445 38,000  Level Kansas City Center
05:30PM 38.8506 -89.5603 272° West 386 444 38,000  Level Kansas City Center
05:31PM 38.8517 -89.6850 271° West 390 449 38,000  Level Kansas City Center
05:32PM 38.8544 -89.8236 272° West 391 450 38,000  Level Kansas City Center
05:33PM 38.9031 -89.9964 290° West 419 482 38,000  Level Kansas City Center
05:34PM 38.9458 -90.1286 293° West 423 487 38,000  Level Kansas City Center
05:35PM 38.9883 -90.2683 291° West 426 490 38,000  Level Kansas City Center
05:36PM 39.0319 -90.4075 292° West 426 490 38,000  Level Kansas City Center
05:37PM 39.0747 -90.5475 292° West 426 490 38,000  Level Kansas City Center
05:38PM 39.1289 -90.7150 293° West 425 489 38,000  Level Kansas City Center
05:39PM 39.1722 -90.8575 291° West 429 494 38,000  Level Kansas City Center
05:40PM 39.2150 -91.0011 291° West 430 495 38,000  Level Kansas City Center
05:41PM 39.2592 -91.1461 292° West 435 501 38,000  Level Kansas City Center
05:42PM 39.3028 -91.2911 291° West 436 502 38,000  Level Kansas City Center
05:43PM 39.3553 -91.4653 291° West 436 502 38,000  Level Kansas City Center
05:44PM 39.3992 -91.6131 291° West 441 507 38,000  Level Kansas City Center
05:46PM 39.4478 -91.7728 292° West 445 512 38,000  Level Kansas City Center
05:47PM 39.4914 -91.9206 291° West 444 511 38,000  Level Kansas City Center
05:48PM 39.5353 -92.0694 291° West 444 511 38,000  Level Kansas City Center
05:49PM 39.5781 -92.2186 290° West 443 510 38,000 -540 Level Kansas City Center
05:50PM 39.6208 -92.3667 291° West 441 507 36,900 -1,560 Descending Kansas City Center
05:51PM 39.6522 -92.5147 285° West 432 497 34,900 -2,160 Descending Kansas City Center
05:52PM 39.6525 -92.6861 270° West 403 464 32,500 -2,400 Descending Kansas City Center
05:53PM 39.6497 -92.8314 269° West 402 463 30,000 -2,460 Descending Kansas City Center
05:54PM 39.6483 -92.9789 269° West 407 468 27,500 -2,460 Descending Kansas City Center
05:55PM 39.6453 -93.1225 268° West 403 464 25,000 -2,400 Descending Kansas City Center
05:56PM 39.6428 -93.2631 269° West 394 453 22,500 -2,460 Descending Kansas City Center
05:57PM 39.6403 -93.3958 269° West 377 434 20,000 -2,700 Descending Kansas City Center
05:58PM 39.6381 -93.5469 269° West 360 414 16,900 -2,640 Descending Kansas City Center
05:59PM 39.6350 -93.6656 268° West 335 386 14,500 -2,220 Descending Kansas City Center
06:00PM 39.6308 -93.7936 268° West 334 384 12,400 -1,260 Descending Kansas City Center
06:01PM 39.6172 -93.9075 261° West 335 386 12,000 -660 Descending Kansas City Center
06:02PM 39.5675 -94.0011 235° Southwest 273 314 11,100 -1,440 Descending Kansas City Center
06:03PM 39.5311 -94.0706 236° Southwest 245 282 9,000 -1,980 Descending Kansas City Center
06:04PM 39.4697 -94.1164 210° Southwest 268 308 7,100 -1,020 Descending Kansas City Center
06:05PM 39.4136 -94.1892 225° Southwest 258 297 7,000 -480 Descending Kansas City Center
06:06PM 39.3644 -94.2522 225° Southwest 258 297 6,100 -540 Descending Kansas City Center
06:07PM 39.3119 -94.3325 230° Southwest 262 302 6,000 -720 Descending Kansas City Center
06:08PM 39.2717 -94.4039 234° Southwest 259 298 4,700 -960 Descending Kansas City Center
06:09PM 39.2711 -94.4944 270° West 228 262 4,000 -720 Descending Kansas City Center
06:10PM 39.2772 -94.5606 277° West 199 229 3,200 -840 Descending Kansas City Center
06:11PM 39.2817 -94.6147 276° West 128 147 2,300 -780 Descending Kansas City Center
06:12PM 39.2850 -94.6544 276° West 116 133 1,700 -660 Descending Kansas City Center
06:13PM 39.2883 -94.6972 276° West 123 142 1,000 -660 Descending Kansas City Center
06:15PM 39.2833 -94.7000 270° West  Level FlightAware Approximate